createdAt,value
2022-11-27T00:00:52.779Z,73.82
2022-11-27T00:02:13.933Z,73.55
2022-11-27T00:03:35.622Z,73.53
2022-11-27T00:04:56.841Z,73.61
2022-11-27T00:06:20.893Z,73.95
2022-11-27T00:07:41.806Z,73.86
2022-11-27T00:09:05.950Z,74.14
2022-11-27T00:10:26.979Z,73.99
2022-11-27T00:11:48.180Z,74.23
2022-11-27T00:13:09.279Z,74.10
2022-11-27T00:14:30.729Z,73.87
2022-11-27T00:15:52.205Z,73.72
2022-11-27T00:17:13.067Z,73.30
2022-11-27T00:18:34.112Z,73.76
2022-11-27T00:19:55.084Z,73.52
2022-11-27T00:21:22.482Z,73.33
2022-11-27T00:22:43.699Z,73.10
2022-11-27T00:24:07.071Z,73.06
2022-11-27T00:25:28.222Z,73.27
2022-11-27T00:26:49.830Z,73.34
2022-11-27T00:28:10.757Z,73.31
2022-11-27T00:29:32.172Z,73.55
2022-11-27T00:30:53.331Z,73.21
2022-11-27T00:32:14.417Z,73.52
2022-11-27T00:33:35.707Z,73.50
2022-11-27T00:34:56.825Z,73.51
2022-11-27T00:36:18.081Z,73.56
2022-11-27T00:37:39.281Z,73.29
2022-11-27T00:39:00.717Z,73.36
2022-11-27T00:40:21.972Z,73.58
2022-11-27T00:41:43.052Z,73.44
2022-11-27T00:43:03.873Z,73.80
2022-11-27T00:44:25.202Z,73.53
2022-11-27T00:45:50.308Z,73.60
2022-11-27T00:47:11.313Z,73.84
2022-11-27T00:48:33.118Z,73.96
2022-11-27T00:49:54.370Z,74.02
2022-11-27T00:51:19.157Z,74.14
2022-11-27T00:52:40.110Z,74.55
2022-11-27T00:54:00.939Z,74.53
2022-11-27T00:55:21.905Z,74.59
2022-11-27T00:56:43.000Z,75.13
2022-11-27T00:58:04.321Z,74.92
2022-11-27T00:59:25.610Z,75.09
2022-11-27T01:00:46.719Z,75.49
2022-11-27T01:02:08.215Z,75.14
2022-11-27T01:03:30.925Z,76.01
2022-11-27T01:04:51.874Z,76.25
2022-11-27T01:06:13.733Z,76.72
2022-11-27T01:07:34.735Z,76.77
2022-11-27T01:08:56.114Z,76.32
2022-11-27T01:10:17.349Z,76.79
2022-11-27T01:11:38.333Z,76.63
2022-11-27T01:12:59.163Z,76.43
2022-11-27T01:14:20.616Z,76.88
2022-11-27T01:15:41.877Z,77.01
2022-11-27T01:17:04.046Z,77.22
2022-11-27T01:18:24.809Z,76.92
2022-11-27T01:19:45.957Z,76.97
2022-11-27T01:21:07.576Z,77.41
2022-11-27T01:22:28.953Z,77.89
2022-11-27T01:23:50.759Z,77.09
2022-11-27T01:25:12.067Z,77.07
2022-11-27T01:26:33.241Z,77.45
2022-11-27T01:27:54.185Z,77.28
2022-11-27T01:29:15.577Z,76.78
2022-11-27T01:30:40.321Z,76.42
2022-11-27T01:32:01.377Z,76.37
2022-11-27T01:33:22.659Z,76.52
2022-11-27T01:34:43.774Z,76.10
2022-11-27T01:36:07.027Z,76.01
2022-11-27T01:37:27.851Z,75.89
2022-11-27T01:38:48.910Z,75.79
2022-11-27T01:40:10.380Z,75.73
2022-11-27T01:41:34.149Z,75.53
2022-11-27T01:42:55.261Z,75.32
2022-11-27T01:44:25.298Z,75.30
2022-11-27T01:45:46.476Z,75.42
2022-11-27T01:47:15.388Z,75.39
2022-11-27T01:48:36.606Z,75.46
2022-11-27T01:50:06.288Z,75.56
2022-11-27T01:51:27.555Z,75.81
2022-11-27T01:52:51.997Z,75.35
2022-11-27T01:54:14.834Z,75.36
2022-11-27T01:55:40.635Z,74.83
2022-11-27T01:57:08.111Z,74.83
2022-11-27T01:58:31.009Z,74.81
2022-11-27T01:59:54.890Z,74.71
2022-11-27T02:01:16.380Z,74.23
2022-11-27T02:02:37.669Z,74.70
2022-11-27T02:04:00.663Z,74.52
2022-11-27T02:05:25.362Z,74.84
2022-11-27T02:06:47.071Z,74.72
2022-11-27T02:08:13.668Z,74.66
2022-11-27T02:09:35.551Z,74.48
2022-11-27T02:11:06.767Z,74.21
2022-11-27T02:12:39.327Z,74.46
2022-11-27T02:14:14.506Z,74.53
2022-11-27T02:15:43.665Z,74.76
2022-11-27T02:17:19.447Z,74.44
2022-11-27T02:18:48.077Z,74.49
2022-11-27T02:20:32.897Z,74.61
2022-11-27T02:22:10.305Z,74.66
2022-11-27T02:23:55.258Z,74.32
2022-11-27T02:25:31.695Z,74.64
2022-11-27T02:27:29.826Z,74.50
2022-11-27T02:29:05.297Z,74.25
2022-11-27T02:30:26.602Z,74.46
2022-11-27T02:31:53.543Z,75.21
2022-11-27T02:33:20.625Z,75.23
2022-11-27T02:35:03.126Z,75.60
2022-11-27T02:36:31.181Z,75.42
2022-11-27T02:38:34.893Z,75.62
2022-11-27T02:40:20.269Z,75.82
2022-11-27T02:42:10.640Z,76.12
2022-11-27T02:43:37.196Z,75.99
2022-11-27T02:45:12.510Z,75.53
2022-11-27T02:46:34.341Z,76.03
2022-11-27T02:47:57.264Z,76.24
2022-11-27T02:49:20.199Z,76.41
2022-11-27T02:50:45.790Z,76.99
2022-11-27T02:52:07.978Z,76.68
2022-11-27T02:53:37.982Z,76.89
2022-11-27T02:55:03.427Z,76.62
2022-11-27T02:56:28.260Z,76.59
2022-11-27T02:57:51.374Z,76.59
2022-11-27T02:59:14.955Z,76.49
2022-11-27T03:00:37.449Z,76.54
2022-11-27T03:02:04.862Z,76.47
2022-11-27T03:03:32.126Z,76.56
2022-11-27T03:04:56.145Z,76.68
2022-11-27T03:06:24.297Z,76.66
2022-11-27T03:07:52.767Z,76.56
2022-11-27T03:09:22.972Z,76.87
2022-11-27T03:10:53.013Z,76.90
2022-11-27T03:12:15.824Z,77.23
2022-11-27T03:13:44.283Z,77.25
2022-11-27T03:15:06.867Z,76.82
2022-11-27T03:16:54.278Z,77.20
2022-11-27T03:18:31.111Z,77.20
2022-11-27T03:20:01.258Z,77.14
2022-11-27T03:21:34.843Z,76.78
2022-11-27T03:22:56.722Z,76.33
2022-11-27T03:24:17.838Z,76.65
2022-11-27T03:25:39.123Z,77.02
2022-11-27T03:27:00.976Z,76.54
2022-11-27T03:28:22.707Z,76.25
2022-11-27T03:29:54.459Z,76.01
2022-11-27T03:31:16.057Z,76.70
2022-11-27T03:32:37.547Z,77.10
2022-11-27T03:33:59.017Z,76.56
2022-11-27T03:35:23.633Z,76.44
2022-11-27T03:36:45.752Z,76.37
2022-11-27T03:38:06.690Z,76.64
2022-11-27T03:39:29.427Z,76.49
2022-11-27T03:41:00.740Z,76.58
2022-11-27T03:42:31.754Z,76.76
2022-11-27T03:43:58.522Z,76.14
2022-11-27T03:45:44.103Z,76.04
2022-11-27T03:47:04.983Z,76.15
2022-11-27T03:48:38.296Z,76.28
2022-11-27T03:50:05.365Z,76.29
2022-11-27T03:51:34.610Z,75.97
2022-11-27T03:53:10.513Z,76.33
2022-11-27T03:55:06.468Z,76.43
2022-11-27T03:56:39.196Z,76.20
2022-11-27T03:58:05.111Z,76.53
2022-11-27T03:59:30.421Z,76.52
2022-11-27T04:00:52.969Z,76.07
2022-11-27T04:02:15.532Z,75.89
2022-11-27T04:03:36.783Z,76.30
2022-11-27T04:04:59.075Z,76.22
2022-11-27T04:06:20.233Z,75.66
2022-11-27T04:07:41.943Z,76.12
2022-11-27T04:09:03.288Z,76.03
2022-11-27T04:10:24.454Z,76.15
2022-11-27T04:11:45.695Z,76.06
2022-11-27T04:13:06.821Z,76.38
2022-11-27T04:14:27.910Z,76.09
2022-11-27T04:15:49.091Z,76.26
2022-11-27T04:17:09.892Z,76.89
2022-11-27T04:18:31.425Z,77.18
2022-11-27T04:19:52.762Z,77.66
2022-11-27T04:21:14.107Z,77.31
2022-11-27T04:22:34.733Z,78.02
2022-11-27T04:23:55.883Z,77.90
2022-11-27T04:25:17.751Z,78.14
2022-11-27T04:26:38.695Z,77.93
2022-11-27T04:27:59.798Z,77.84
2022-11-27T04:29:20.915Z,77.94
2022-11-27T04:30:41.739Z,78.16
2022-11-27T04:32:03.596Z,78.25
2022-11-27T04:33:24.708Z,78.24
2022-11-27T04:34:45.796Z,78.60
2022-11-27T04:36:07.088Z,77.76
2022-11-27T04:37:28.186Z,77.63
2022-11-27T04:38:49.369Z,77.63
2022-11-27T04:40:10.986Z,77.98
2022-11-27T04:41:32.170Z,78.16
2022-11-27T04:42:53.453Z,77.88
2022-11-27T04:44:15.222Z,78.22
2022-11-27T04:45:36.882Z,78.08
2022-11-27T04:46:57.765Z,77.97
2022-11-27T04:48:19.005Z,78.21
2022-11-27T04:49:40.029Z,78.08
2022-11-27T04:51:01.113Z,77.87
2022-11-27T04:52:22.393Z,78.06
2022-11-27T04:53:43.839Z,78.16
2022-11-27T04:55:05.312Z,77.95
2022-11-27T04:56:26.858Z,78.21
2022-11-27T04:57:48.118Z,77.94
2022-11-27T04:59:09.829Z,78.43
2022-11-27T05:00:30.750Z,78.17
2022-11-27T05:01:51.542Z,78.35
2022-11-27T05:03:12.681Z,78.47
2022-11-27T05:04:34.163Z,78.12
2022-11-27T05:05:56.973Z,78.38
2022-11-27T05:07:18.390Z,78.34
2022-11-27T05:08:39.556Z,78.14
2022-11-27T05:10:00.993Z,78.36
2022-11-27T05:11:22.105Z,78.63
2022-11-27T05:12:43.394Z,78.39
2022-11-27T05:14:17.055Z,78.09
2022-11-27T05:15:38.300Z,77.93
2022-11-27T05:16:59.717Z,77.47
2022-11-27T05:18:21.615Z,77.82
2022-11-27T05:19:42.931Z,77.80
2022-11-27T05:21:08.473Z,77.62
2022-11-27T05:22:29.728Z,77.79
2022-11-27T05:23:50.814Z,77.49
2022-11-27T05:25:12.358Z,77.60
2022-11-27T05:26:33.877Z,77.48
2022-11-27T05:27:54.707Z,78.24
2022-11-27T05:29:16.488Z,78.30
2022-11-27T05:30:37.931Z,77.92
2022-11-27T05:31:58.935Z,77.95
2022-11-27T05:33:19.988Z,78.16
2022-11-27T05:34:41.391Z,77.88
2022-11-27T05:36:02.972Z,77.84
2022-11-27T05:37:25.026Z,77.68
2022-11-27T05:38:46.324Z,77.26
2022-11-27T05:40:08.197Z,77.17
2022-11-27T05:41:29.431Z,77.00
2022-11-27T05:42:50.239Z,76.91
2022-11-27T05:44:13.720Z,77.04
2022-11-27T05:45:34.751Z,76.73
2022-11-27T05:46:57.153Z,76.55
2022-11-27T05:48:18.429Z,76.38
2022-11-27T05:49:39.710Z,76.18
2022-11-27T05:51:01.697Z,76.11
2022-11-27T05:52:22.942Z,75.68
2022-11-27T05:53:44.237Z,75.88
2022-11-27T05:55:05.589Z,75.47
2022-11-27T05:56:26.793Z,75.05
2022-11-27T05:57:48.028Z,75.07
2022-11-27T05:59:10.926Z,74.64
2022-11-27T06:00:32.053Z,74.00
2022-11-27T06:01:53.100Z,74.00
2022-11-27T06:03:15.279Z,73.28
2022-11-27T06:04:36.228Z,72.49
2022-11-27T06:05:57.616Z,72.30
2022-11-27T06:07:19.209Z,71.83
2022-11-27T06:08:41.014Z,71.20
2022-11-27T06:10:02.239Z,70.88
2022-11-27T06:11:23.939Z,70.93
2022-11-27T06:12:44.760Z,70.68
2022-11-27T06:14:08.927Z,70.46
2022-11-27T06:15:29.794Z,69.82
2022-11-27T06:16:50.848Z,69.97
2022-11-27T06:18:12.663Z,68.60
2022-11-27T06:19:33.704Z,68.03
2022-11-27T06:20:54.951Z,68.02
2022-11-27T06:22:16.226Z,66.51
2022-11-27T06:23:38.543Z,65.75
2022-11-27T06:24:59.911Z,65.39
2022-11-27T06:26:26.468Z,64.61
2022-11-27T06:27:47.236Z,64.81
2022-11-27T06:29:09.472Z,64.87
2022-11-27T06:30:30.694Z,64.88
2022-11-27T06:31:52.086Z,64.01
2022-11-27T06:33:13.374Z,63.38
2022-11-27T06:34:34.398Z,62.59
2022-11-27T06:35:55.634Z,62.46
2022-11-27T06:37:16.829Z,62.26
2022-11-27T06:38:38.494Z,61.93
2022-11-27T06:39:59.885Z,61.30
2022-11-27T06:41:24.726Z,60.28
2022-11-27T06:42:45.614Z,61.34
2022-11-27T06:44:06.859Z,60.20
2022-11-27T06:45:27.859Z,60.46
2022-11-27T06:46:48.766Z,60.95
2022-11-27T06:48:09.843Z,60.25
2022-11-27T06:49:31.158Z,59.10
2022-11-27T06:50:52.350Z,58.77
2022-11-27T06:52:13.664Z,58.64
2022-11-27T06:53:37.293Z,58.16
2022-11-27T06:54:58.570Z,57.77
2022-11-27T06:56:26.357Z,57.64
2022-11-27T06:57:50.653Z,56.71
2022-11-27T06:59:15.645Z,56.41
2022-11-27T07:00:36.542Z,56.62
2022-11-27T07:01:57.636Z,56.55
2022-11-27T07:03:19.078Z,56.08
2022-11-27T07:04:40.624Z,55.68
2022-11-27T07:06:05.218Z,54.76
2022-11-27T07:07:26.562Z,54.47
2022-11-27T07:08:47.738Z,54.75
2022-11-27T07:10:09.400Z,55.76
2022-11-27T07:11:32.026Z,55.34
2022-11-27T07:12:53.185Z,55.61
2022-11-27T07:14:14.622Z,56.30
2022-11-27T07:15:36.052Z,56.14
2022-11-27T07:16:57.325Z,56.02
2022-11-27T07:18:18.606Z,55.65
2022-11-27T07:19:39.480Z,55.82
2022-11-27T07:21:00.750Z,55.72
2022-11-27T07:22:24.474Z,56.39
2022-11-27T07:23:46.126Z,56.78
2022-11-27T07:25:07.320Z,57.74
2022-11-27T07:26:29.979Z,57.15
2022-11-27T07:27:51.014Z,58.09
2022-11-27T07:29:12.044Z,57.83
2022-11-27T07:30:33.054Z,57.87
2022-11-27T07:31:54.043Z,57.89
2022-11-27T07:33:15.338Z,58.07
2022-11-27T07:34:36.704Z,57.34
2022-11-27T07:36:08.546Z,57.29
2022-11-27T07:37:33.447Z,57.23
2022-11-27T07:38:54.378Z,57.00
2022-11-27T07:40:15.603Z,56.36
2022-11-27T07:41:36.638Z,55.27
2022-11-27T07:42:58.849Z,53.90
2022-11-27T07:44:19.719Z,52.88
2022-11-27T07:45:40.911Z,49.88
2022-11-27T07:47:02.091Z,48.19
2022-11-27T07:48:23.769Z,48.17
2022-11-27T07:49:45.044Z,48.24
2022-11-27T07:51:08.156Z,47.38
2022-11-27T07:52:29.512Z,45.60
2022-11-27T07:53:52.069Z,45.55
2022-11-27T07:55:13.490Z,44.53
2022-11-27T07:56:34.820Z,44.66
2022-11-27T07:57:55.757Z,43.83
2022-11-27T07:59:17.063Z,43.92
2022-11-27T08:00:38.565Z,44.20
2022-11-27T08:01:59.473Z,43.52
2022-11-27T08:03:20.305Z,43.46
2022-11-27T08:04:41.838Z,43.16
2022-11-27T08:06:03.201Z,42.78
2022-11-27T08:07:30.666Z,43.26
2022-11-27T08:08:52.861Z,43.66
2022-11-27T08:10:14.226Z,44.39
2022-11-27T08:11:35.951Z,45.11
2022-11-27T08:12:58.400Z,45.39
2022-11-27T08:14:19.482Z,46.37
2022-11-27T08:15:40.704Z,46.53
2022-11-27T08:17:02.400Z,46.15
2022-11-27T08:18:23.352Z,45.85
2022-11-27T08:19:44.513Z,45.90
2022-11-27T08:21:05.853Z,45.25
2022-11-27T08:22:26.938Z,44.86
2022-11-27T08:23:48.391Z,43.91
2022-11-27T08:25:09.676Z,41.98
2022-11-27T08:26:30.571Z,40.48
2022-11-27T08:27:51.805Z,39.52
2022-11-27T08:29:13.065Z,38.35
2022-11-27T08:30:34.708Z,37.64
2022-11-27T08:31:56.178Z,37.52
2022-11-27T08:33:17.354Z,37.04
2022-11-27T08:34:38.734Z,35.65
2022-11-27T08:36:00.735Z,35.17
2022-11-27T08:37:22.192Z,35.10
2022-11-27T08:38:43.492Z,34.92
2022-11-27T08:40:05.442Z,34.42
2022-11-27T08:41:26.617Z,34.16
2022-11-27T08:42:47.889Z,33.98
2022-11-27T08:44:09.557Z,33.02
2022-11-27T08:45:32.887Z,32.57
2022-11-27T08:46:54.234Z,31.95
2022-11-27T08:48:15.606Z,31.58
2022-11-27T08:49:39.814Z,30.51
2022-11-27T08:51:09.187Z,30.34
2022-11-27T08:52:30.247Z,30.76
2022-11-27T08:53:52.393Z,31.60
2022-11-27T08:55:13.241Z,32.43
2022-11-27T08:56:34.663Z,33.65
2022-11-27T08:57:55.719Z,34.23
2022-11-27T08:59:16.964Z,33.85
2022-11-27T09:00:38.940Z,33.98
2022-11-27T09:02:00.018Z,34.37
2022-11-27T09:03:23.298Z,37.29
2022-11-27T09:04:44.704Z,37.06
2022-11-27T09:06:07.828Z,37.64
2022-11-27T09:07:29.137Z,38.54
2022-11-27T09:08:51.235Z,41.43
2022-11-27T09:10:12.175Z,42.47
2022-11-27T09:11:34.233Z,42.01
2022-11-27T09:12:56.404Z,41.07
2022-11-27T09:14:17.609Z,39.59
2022-11-27T09:15:38.631Z,39.24
2022-11-27T09:16:59.664Z,37.42
2022-11-27T09:18:20.655Z,37.38
2022-11-27T09:19:41.746Z,37.22
2022-11-27T09:21:07.231Z,37.74
2022-11-27T09:22:28.139Z,37.98
2022-11-27T09:23:55.800Z,38.92
2022-11-27T09:25:17.167Z,39.25
2022-11-27T09:26:39.483Z,39.99
2022-11-27T09:28:00.714Z,40.18
2022-11-27T09:29:25.315Z,39.44
2022-11-27T09:30:46.702Z,37.88
2022-11-27T09:32:07.955Z,36.47
2022-11-27T09:33:31.547Z,36.41
2022-11-27T09:34:52.945Z,36.00
2022-11-27T09:36:22.911Z,35.95
2022-11-27T09:37:43.919Z,35.90
2022-11-27T09:39:05.205Z,35.72
2022-11-27T09:40:26.293Z,35.14
2022-11-27T09:41:52.674Z,35.47
2022-11-27T09:43:13.896Z,35.35
2022-11-27T09:44:40.285Z,35.17
2022-11-27T09:46:12.231Z,36.61
2022-11-27T09:47:45.249Z,36.58
2022-11-27T09:49:12.151Z,37.02
2022-11-27T09:50:50.121Z,37.89
2022-11-27T09:52:23.130Z,38.05
2022-11-27T09:53:58.465Z,38.11
2022-11-27T09:55:34.606Z,38.78
2022-11-27T09:56:57.909Z,38.35
2022-11-27T09:58:36.620Z,38.48
2022-11-27T10:00:02.392Z,39.40
2022-11-27T10:01:36.644Z,40.15
2022-11-27T10:03:01.711Z,39.32
2022-11-27T10:04:23.082Z,39.60
2022-11-27T10:06:11.330Z,38.97
2022-11-27T10:08:08.926Z,40.04
2022-11-27T10:09:49.543Z,39.82
2022-11-27T10:11:42.330Z,39.66
2022-11-27T10:13:40.831Z,40.70
2022-11-27T10:15:14.747Z,41.01
2022-11-27T10:16:44.861Z,39.88
2022-11-27T10:18:15.180Z,40.50
2022-11-27T10:19:58.022Z,40.67
2022-11-27T10:21:24.852Z,40.63
2022-11-27T10:22:54.878Z,40.60
2022-11-27T10:24:28.210Z,41.04
2022-11-27T10:25:52.589Z,41.35
2022-11-27T10:27:23.662Z,41.03
2022-11-27T10:28:59.043Z,41.23
2022-11-27T10:30:22.129Z,41.63
2022-11-27T10:31:57.423Z,41.71
2022-11-27T10:33:26.297Z,41.84
2022-11-27T10:34:53.306Z,41.74
2022-11-27T10:36:21.997Z,42.20
2022-11-27T10:37:49.009Z,41.79
2022-11-27T10:39:22.890Z,41.83
2022-11-27T10:40:52.593Z,41.70
2022-11-27T10:42:36.473Z,40.68
2022-11-27T10:44:04.967Z,40.50
2022-11-27T10:45:32.188Z,40.34
2022-11-27T10:46:59.639Z,40.42
2022-11-27T10:48:21.045Z,40.40
2022-11-27T10:49:42.936Z,40.44
2022-11-27T10:51:03.937Z,39.60
2022-11-27T10:52:25.671Z,39.82
2022-11-27T10:53:50.842Z,40.05
2022-11-27T10:55:19.017Z,39.77
2022-11-27T10:56:47.987Z,39.01
2022-11-27T10:58:22.654Z,39.84
2022-11-27T11:00:05.378Z,39.62
2022-11-27T11:01:29.592Z,39.53
2022-11-27T11:03:04.603Z,39.72
2022-11-27T11:04:38.004Z,39.18
2022-11-27T11:06:21.541Z,38.63
2022-11-27T11:08:05.030Z,38.39
2022-11-27T11:09:28.761Z,38.56
2022-11-27T11:10:58.664Z,39.00
2022-11-27T11:12:21.893Z,39.42
2022-11-27T11:13:47.272Z,39.57
2022-11-27T11:15:11.504Z,39.98
2022-11-27T11:16:35.642Z,39.37
2022-11-27T11:17:57.098Z,39.65
2022-11-27T11:19:39.136Z,39.40
2022-11-27T11:21:09.034Z,39.47
2022-11-27T11:22:31.609Z,39.01
2022-11-27T11:23:58.653Z,39.57
2022-11-27T11:25:21.705Z,39.98
2022-11-27T11:27:20.002Z,38.80
2022-11-27T11:28:50.264Z,38.63
2022-11-27T11:33:07.000Z,39.33
2022-11-27T11:34:30.193Z,38.99
2022-11-27T11:35:57.868Z,39.59
2022-11-27T11:37:28.624Z,39.28
2022-11-27T11:38:50.475Z,40.28
2022-11-27T11:40:16.272Z,40.09
2022-11-27T11:41:40.479Z,39.67
2022-11-27T11:43:03.493Z,40.98
2022-11-27T11:44:33.269Z,39.65
2022-11-27T11:45:56.338Z,39.55
2022-11-27T11:47:26.617Z,39.07
2022-11-27T11:48:55.084Z,39.74
2022-11-27T11:50:41.481Z,40.64
2022-11-27T11:52:05.517Z,41.33
2022-11-27T11:53:35.582Z,41.20
2022-11-27T11:55:20.124Z,41.29
2022-11-27T11:56:45.944Z,41.58
2022-11-27T11:58:11.155Z,41.37
2022-11-27T12:00:08.287Z,40.73
2022-11-27T12:01:40.599Z,40.20
2022-11-27T12:03:35.480Z,41.10
2022-11-27T12:05:19.334Z,40.26
2022-11-27T12:06:51.437Z,40.39
2022-11-27T12:08:44.979Z,40.43
2022-11-27T12:10:22.950Z,41.66
2022-11-27T12:11:47.204Z,41.75
2022-11-27T12:13:23.382Z,42.47
2022-11-27T12:15:01.365Z,42.06
2022-11-27T12:16:49.788Z,42.40
2022-11-27T12:18:29.501Z,42.87
2022-11-27T12:20:13.021Z,42.61
2022-11-27T12:22:02.159Z,42.07
2022-11-27T12:23:59.457Z,42.50
2022-11-27T12:25:34.161Z,42.48
2022-11-27T12:27:04.522Z,43.32
2022-11-27T12:28:43.878Z,42.21
2022-11-27T12:30:23.682Z,42.25
2022-11-27T12:31:59.295Z,42.53
2022-11-27T12:33:20.958Z,42.60
2022-11-27T12:35:04.402Z,42.95
2022-11-27T12:36:56.606Z,42.47
2022-11-27T12:38:25.035Z,42.87
2022-11-27T12:40:11.058Z,43.52
2022-11-27T12:41:42.180Z,43.42
2022-11-27T12:43:27.204Z,43.19
2022-11-27T12:45:01.561Z,43.16
2022-11-27T12:47:11.465Z,44.29
2022-11-27T12:48:46.589Z,43.97
2022-11-27T12:50:36.931Z,44.40
2022-11-27T12:52:11.619Z,44.16
2022-11-27T12:53:37.136Z,43.93
2022-11-27T12:55:15.955Z,43.74
2022-11-27T12:56:48.497Z,44.32
2022-11-27T12:58:18.126Z,44.93
2022-11-27T12:59:45.942Z,44.48
2022-11-27T13:01:12.798Z,43.58
2022-11-27T13:03:04.292Z,44.10
2022-11-27T13:04:37.217Z,44.18
2022-11-27T13:06:12.043Z,44.22
2022-11-27T13:07:40.290Z,44.51
2022-11-27T13:09:47.308Z,44.75
2022-11-27T13:11:14.196Z,45.23
2022-11-27T13:12:42.632Z,45.75
2022-11-27T13:14:12.520Z,46.08
2022-11-27T13:15:44.535Z,45.83
2022-11-27T13:17:15.805Z,45.52
2022-11-27T13:18:49.680Z,46.01
2022-11-27T13:20:24.608Z,46.27
2022-11-27T13:21:47.797Z,46.73
2022-11-27T13:23:09.139Z,46.31
2022-11-27T13:24:30.481Z,46.60
2022-11-27T13:25:55.398Z,46.48
2022-11-27T13:27:23.674Z,47.13
2022-11-27T13:28:54.729Z,46.94
2022-11-27T13:30:25.756Z,47.51
2022-11-27T13:31:52.784Z,47.34
2022-11-27T13:33:30.190Z,47.60
2022-11-27T13:34:53.561Z,46.80
2022-11-27T13:36:30.012Z,46.84
2022-11-27T13:38:10.746Z,46.96
2022-11-27T13:39:37.999Z,46.98
2022-11-27T13:41:05.417Z,47.48
2022-11-27T13:42:28.664Z,47.84
2022-11-27T13:43:51.478Z,47.35
2022-11-27T13:45:24.353Z,47.99
2022-11-27T13:46:49.126Z,48.13
2022-11-27T13:48:28.943Z,48.71
2022-11-27T13:50:13.738Z,48.29
2022-11-27T13:51:38.374Z,48.31
2022-11-27T13:53:06.188Z,48.52
2022-11-27T13:54:40.468Z,48.61
2022-11-27T13:56:02.560Z,48.55
2022-11-27T13:57:24.021Z,49.04
2022-11-27T13:58:44.899Z,49.29
2022-11-27T14:00:13.082Z,49.28
2022-11-27T14:01:34.342Z,49.53
2022-11-27T14:02:55.238Z,50.02
2022-11-27T14:04:16.430Z,49.78
2022-11-27T14:05:43.016Z,50.13
2022-11-27T14:07:11.332Z,50.50
2022-11-27T14:08:35.187Z,50.83
2022-11-27T14:10:08.871Z,51.30
2022-11-27T14:11:41.390Z,51.21
2022-11-27T14:13:06.317Z,51.60
2022-11-27T14:14:29.109Z,51.71
2022-11-27T14:16:01.810Z,52.75
2022-11-27T14:17:28.042Z,52.91
2022-11-27T14:18:54.426Z,53.80
2022-11-27T14:20:29.091Z,53.73
2022-11-27T14:21:50.503Z,54.02
2022-11-27T14:23:13.404Z,53.99
2022-11-27T14:24:43.612Z,54.22
2022-11-27T14:26:21.286Z,53.95
2022-11-27T14:27:42.761Z,53.82
2022-11-27T14:29:03.524Z,53.74
2022-11-27T14:30:30.819Z,53.87
2022-11-27T14:32:02.495Z,54.07
2022-11-27T14:33:47.448Z,53.81
2022-11-27T14:35:26.628Z,53.73
2022-11-27T14:36:52.808Z,54.14
2022-11-27T14:38:15.976Z,54.05
2022-11-27T14:39:37.520Z,53.76
2022-11-27T14:41:15.707Z,53.28
2022-11-27T14:42:39.222Z,53.08
2022-11-27T14:44:01.835Z,53.29
2022-11-27T14:45:24.015Z,53.52
2022-11-27T14:46:45.003Z,53.52
2022-11-27T14:48:06.920Z,53.53
2022-11-27T14:49:30.375Z,54.64
2022-11-27T14:50:53.390Z,54.56
2022-11-27T14:52:17.353Z,53.41
2022-11-27T14:53:39.490Z,53.38
2022-11-27T14:55:02.313Z,53.03
2022-11-27T14:56:24.962Z,54.05
2022-11-27T14:57:48.684Z,53.91
2022-11-27T14:59:18.186Z,53.96
2022-11-27T15:00:52.474Z,53.79
2022-11-27T15:02:13.890Z,53.82
2022-11-27T15:03:35.060Z,54.18
2022-11-27T15:05:04.873Z,52.82
2022-11-27T15:06:29.982Z,52.84
2022-11-27T15:07:54.151Z,52.77
2022-11-27T15:09:31.614Z,52.48
2022-11-27T15:10:57.049Z,53.02
2022-11-27T15:12:22.647Z,52.95
2022-11-27T15:13:52.433Z,52.55
2022-11-27T15:15:28.453Z,53.75
2022-11-27T15:16:51.892Z,54.24
2022-11-27T15:18:25.444Z,54.24
2022-11-27T15:19:47.099Z,55.15
2022-11-27T15:21:13.383Z,55.60
2022-11-27T15:22:36.973Z,54.51
2022-11-27T15:23:58.070Z,54.02
2022-11-27T15:26:09.688Z,53.25
2022-11-27T15:27:47.853Z,53.07
2022-11-27T15:29:31.053Z,54.02
2022-11-27T15:30:52.256Z,53.43
2022-11-27T15:32:23.000Z,53.10
2022-11-27T15:34:14.753Z,53.28
2022-11-27T15:35:36.338Z,54.29
2022-11-27T15:37:16.583Z,53.81
2022-11-27T15:38:37.932Z,53.75
2022-11-27T15:40:01.280Z,54.27
2022-11-27T15:41:28.344Z,54.64
2022-11-27T15:42:49.793Z,54.40
2022-11-27T15:44:11.344Z,53.88
2022-11-27T15:45:33.103Z,54.27
2022-11-27T15:46:55.757Z,53.95
2022-11-27T15:48:19.143Z,53.72
2022-11-27T15:49:40.409Z,54.19
2022-11-27T15:51:01.481Z,55.30
2022-11-27T15:52:23.253Z,55.44
2022-11-27T15:53:44.472Z,55.19
2022-11-27T15:55:06.407Z,54.95
2022-11-27T15:56:28.412Z,55.04
2022-11-27T15:57:49.549Z,55.14
2022-11-27T15:59:11.503Z,54.94
2022-11-27T16:00:33.023Z,55.38
2022-11-27T16:01:55.400Z,55.22
2022-11-27T16:03:16.401Z,55.13
2022-11-27T16:04:40.123Z,55.30
2022-11-27T16:06:06.638Z,55.91
2022-11-27T16:07:27.681Z,55.95
2022-11-27T16:08:54.502Z,56.11
2022-11-27T16:10:15.793Z,55.89
2022-11-27T16:11:37.072Z,55.20
2022-11-27T16:12:59.024Z,56.11
2022-11-27T16:14:20.183Z,56.96
2022-11-27T16:15:41.200Z,55.86
2022-11-27T16:17:02.262Z,55.98
2022-11-27T16:18:23.417Z,55.93
2022-11-27T16:19:44.648Z,55.37
2022-11-27T16:21:11.843Z,55.40
2022-11-27T16:22:32.883Z,55.36
2022-11-27T16:24:00.520Z,55.70
2022-11-27T16:25:21.462Z,55.31
2022-11-27T16:26:42.935Z,55.64
2022-11-27T16:28:03.844Z,56.20
2022-11-27T16:29:24.993Z,55.05
2022-11-27T16:30:45.767Z,54.97
2022-11-27T16:32:07.012Z,55.57
2022-11-27T16:33:30.723Z,55.81
2022-11-27T16:34:52.072Z,55.39
2022-11-27T16:36:16.476Z,54.98
2022-11-27T16:37:37.711Z,54.83
2022-11-27T16:38:58.871Z,55.65
2022-11-27T16:40:20.559Z,55.83
2022-11-27T16:41:42.514Z,55.13
2022-11-27T16:43:04.160Z,55.71
2022-11-27T16:44:26.385Z,55.70
2022-11-27T16:45:47.431Z,55.68
2022-11-27T16:47:08.471Z,55.60
2022-11-27T16:48:29.883Z,55.86
2022-11-27T16:49:51.646Z,56.10
2022-11-27T16:51:21.888Z,56.18
2022-11-27T16:52:44.623Z,55.69
2022-11-27T16:54:09.965Z,55.52
2022-11-27T16:55:34.107Z,56.39
2022-11-27T16:56:55.398Z,55.77
2022-11-27T16:58:16.191Z,57.14
2022-11-27T16:59:38.628Z,57.21
2022-11-27T17:00:59.967Z,57.60
2022-11-27T17:02:21.401Z,57.33
2022-11-27T17:03:42.936Z,57.27
2022-11-27T17:05:04.657Z,56.63
2022-11-27T17:06:28.115Z,57.27
2022-11-27T17:07:49.438Z,57.86
2022-11-27T17:09:10.747Z,56.90
2022-11-27T17:10:32.142Z,56.92
2022-11-27T17:11:53.365Z,57.72
2022-11-27T17:13:14.529Z,57.06
2022-11-27T17:14:37.015Z,57.27
2022-11-27T17:16:03.951Z,57.73
2022-11-27T17:17:25.373Z,57.02
2022-11-27T17:18:47.189Z,57.60
2022-11-27T17:20:10.517Z,57.15
2022-11-27T17:21:34.933Z,57.72
2022-11-27T17:22:56.918Z,57.54
2022-11-27T17:24:18.359Z,58.12
2022-11-27T17:25:39.947Z,57.90
2022-11-27T17:27:00.935Z,57.38
2022-11-27T17:28:24.749Z,57.91
2022-11-27T17:29:46.086Z,57.94
2022-11-27T17:31:35.582Z,57.37
2022-11-27T17:32:58.178Z,57.49
2022-11-27T17:34:20.753Z,58.04
2022-11-27T17:35:42.818Z,58.22
2022-11-27T17:37:04.020Z,57.27
2022-11-27T17:38:25.889Z,57.95
2022-11-27T17:39:47.924Z,56.97
2022-11-27T17:41:13.753Z,57.44
2022-11-27T17:42:35.005Z,57.55
2022-11-27T17:43:56.796Z,58.01
2022-11-27T17:45:17.868Z,57.84
2022-11-27T17:46:40.130Z,57.63
2022-11-27T17:48:02.187Z,57.93
2022-11-27T17:49:24.446Z,57.31
2022-11-27T17:50:45.378Z,57.70
2022-11-27T17:52:06.911Z,58.13
2022-11-27T17:53:29.986Z,58.00
2022-11-27T17:54:52.000Z,58.44
2022-11-27T17:56:15.967Z,58.18
2022-11-27T17:57:37.272Z,58.33
2022-11-27T17:58:59.974Z,57.87
2022-11-27T18:00:21.399Z,57.81
2022-11-27T18:01:43.245Z,57.81
2022-11-27T18:03:07.443Z,57.49
2022-11-27T18:04:31.045Z,58.15
2022-11-27T18:05:52.741Z,57.43
2022-11-27T18:07:13.809Z,57.61
2022-11-27T18:08:35.705Z,57.22
2022-11-27T18:09:59.222Z,56.96
2022-11-27T18:11:22.936Z,57.01
2022-11-27T18:12:44.565Z,58.03
2022-11-27T18:14:05.921Z,57.81
2022-11-27T18:15:27.101Z,57.55
2022-11-27T18:16:48.261Z,57.97
2022-11-27T18:18:09.366Z,58.19
2022-11-27T18:19:35.772Z,57.57
2022-11-27T18:21:04.531Z,57.64
2022-11-27T18:22:25.646Z,57.88
2022-11-27T18:24:22.045Z,57.62
2022-11-27T18:25:28.794Z,58.08
2022-11-27T18:28:31.158Z,58.42